Time;durP1;ratioP1;P1;durP2;ratioP2;P2;SDS_P1;SDS_P2;PMS_P1;PMS_P2;Temp;Humidity;BMP_temperature;BMP_pressure;BME280_temperature;BME280_humidity;BME280_pressure;Samples;Min_cycle;Max_cycle;Signal;HPM_P1;HPM_P2
2023/10/27 00:00:21;;;;;;;8.80;6.40;;;;;;;13.45;89.69;97588.98;107243;1260;70836;-37
2023/10/27 00:02:48;;;;;;;12.30;6.70;;;;;;;13.49;89.38;97592.85;107264;1257;61711;-37
2023/10/27 00:05:16;;;;;;;9.40;6.20;;;;;;;13.52;89.14;97587.66;107264;1256;60069;-37
2023/10/27 00:07:43;;;;;;;8.10;6.30;;;;;;;13.50;89.06;97587.72;107212;1257;71302;-37
2023/10/27 00:10:12;;;;;;;8.90;6.00;;;;;;;13.46;89.07;97595.56;107224;1256;66310;-37
2023/10/27 00:12:40;;;;;;;10.00;6.50;;;;;;;13.47;88.76;97592.11;107209;1261;71240;-37
2023/10/27 00:15:08;;;;;;;7.70;5.40;;;;;;;13.48;88.40;97591.80;107239;1256;60065;-37
2023/10/27 00:17:36;;;;;;;8.00;6.20;;;;;;;13.46;88.56;97590.96;107302;1256;60104;-37
2023/10/27 00:20:05;;;;;;;9.60;6.80;;;;;;;13.41;88.67;97591.95;107312;1260;73143;-38
2023/10/27 00:22:33;;;;;;;8.30;4.80;;;;;;;13.35;88.80;97593.30;107271;1257;68610;-37
2023/10/27 00:25:00;;;;;;;9.40;6.20;;;;;;;13.36;88.74;97590.80;107209;1257;72711;-37
2023/10/27 00:27:28;;;;;;;10.30;5.80;;;;;;;13.37;88.72;97588.23;107198;1257;60077;-37
2023/10/27 00:29:56;;;;;;;7.50;6.00;;;;;;;13.38;88.75;97595.35;107237;1256;60777;-37
2023/10/27 00:32:23;;;;;;;12.80;6.30;;;;;;;13.34;89.01;97599.93;107285;1257;72425;-37
2023/10/27 00:34:51;;;;;;;7.90;6.00;;;;;;;13.33;89.04;97599.41;107249;1257;66433;-37
2023/10/27 00:37:19;;;;;;;7.70;5.40;;;;;;;13.34;88.83;97594.96;107225;1256;72707;-37
2023/10/27 00:39:46;;;;;;;7.00;5.20;;;;;;;13.33;88.58;97599.64;107202;1260;60114;-37
2023/10/27 00:42:14;;;;;;;7.40;5.30;;;;;;;13.28;88.82;97600.70;107113;1257;60058;-37
2023/10/27 00:44:41;;;;;;;8.00;5.30;;;;;;;13.22;89.19;97602.83;107215;1257;71935;-37
2023/10/27 00:47:09;;;;;;;10.80;5.60;;;;;;;13.20;89.41;97593.01;107148;1257;68104;-38
2023/10/27 00:49:36;;;;;;;8.80;4.60;;;;;;;13.22;89.32;97592.24;107284;1256;71394;-37
2023/10/27 00:52:05;;;;;;;7.30;5.30;;;;;;;13.24;89.25;97591.29;107070;1257;61739;-38
2023/10/27 00:54:33;;;;;;;8.60;5.00;;;;;;;13.23;89.53;97593.26;107325;1256;59580;-35
2023/10/27 00:57:01;;;;;;;8.10;5.90;;;;;;;13.19;89.61;97588.66;107276;1257;71735;-36
2023/10/27 00:59:29;;;;;;;5.20;4.30;;;;;;;13.14;89.65;97586.89;107245;1260;66378;-36
2023/10/27 01:01:56;;;;;;;7.60;5.20;;;;;;;13.13;89.63;97585.11;107214;1257;72716;-37
2023/10/27 01:04:27;;;;;;;5.10;4.30;;;;;;;13.14;89.57;97580.75;107249;1256;61698;-37
2023/10/27 01:06:55;;;;;;;8.10;4.80;;;;;;;13.12;89.46;97584.27;107286;1256;60113;-37
2023/10/27 01:09:23;;;;;;;11.20;5.50;;;;;;;13.05;89.31;97588.05;107108;1257;73037;-37
2023/10/27 01:11:51;;;;;;;7.20;4.80;;;;;;;12.95;89.40;97597.41;107086;1257;66426;-37
2023/10/27 01:14:18;;;;;;;8.40;4.50;;;;;;;12.87;89.24;97600.59;107101;1262;72708;-36
2023/10/27 01:16:46;;;;;;;5.30;3.90;;;;;;;12.82;89.18;97600.61;107202;1260;60365;-36
2023/10/27 01:19:13;;;;;;;7.00;4.40;;;;;;;12.75;89.42;97603.23;107258;1260;59513;-36
2023/10/27 01:21:42;;;;;;;6.40;4.80;;;;;;;12.67;89.88;97600.56;107269;1262;72077;-37
2023/10/27 01:24:10;;;;;;;8.20;4.30;;;;;;;12.61;90.06;97597.95;107300;1257;66219;-36
2023/10/27 01:26:37;;;;;;;6.00;4.20;;;;;;;12.61;89.76;97603.39;107257;1257;70422;-36
2023/10/27 01:29:05;;;;;;;7.40;4.30;;;;;;;12.60;89.69;97608.68;107285;1258;61711;-37
2023/10/27 01:31:32;;;;;;;5.90;4.10;;;;;;;12.54;89.76;97610.04;107259;1258;59983;-36
2023/10/27 01:34:00;;;;;;;8.80;5.10;;;;;;;12.45;90.15;97612.38;107091;1256;73041;-37
2023/10/27 01:36:27;;;;;;;8.30;4.90;;;;;;;12.39;90.49;97614.56;107246;1257;67570;-37
2023/10/27 01:38:55;;;;;;;5.70;4.60;;;;;;;12.38;90.32;97615.98;107243;1256;72671;-37
2023/10/27 01:41:23;;;;;;;8.20;5.20;;;;;;;12.39;90.25;97615.87;107288;1256;59807;-36
2023/10/27 01:43:51;;;;;;;10.70;5.40;;;;;;;12.37;90.53;97613.90;107268;1257;59410;-36
2023/10/27 01:46:18;;;;;;;6.80;5.00;;;;;;;12.33;90.86;97614.66;107261;1257;73085;-36
2023/10/27 01:48:46;;;;;;;5.90;4.30;;;;;;;12.30;90.94;97610.52;107328;1258;67588;-37
2023/10/27 01:51:14;;;;;;;9.60;4.60;;;;;;;12.30;90.89;97605.15;107124;1257;72736;-36
2023/10/27 01:53:42;;;;;;;7.80;4.60;;;;;;;12.30;90.88;97602.98;107214;1256;61677;-37
2023/10/27 01:56:10;;;;;;;6.10;4.80;;;;;;;12.26;90.98;97606.08;107267;1257;61054;-36
2023/10/27 01:58:40;;;;;;;7.60;4.60;;;;;;;12.17;91.44;97603.95;107090;1256;73855;-36
2023/10/27 02:01:08;;;;;;;8.70;4.80;;;;;;;12.10;91.68;97604.31;107079;1256;66764;-37
2023/10/27 02:03:35;;;;;;;9.00;4.20;;;;;;;12.07;91.77;97602.95;107247;1256;71870;-36
2023/10/27 02:06:03;;;;;;;5.40;4.10;;;;;;;12.09;91.77;97601.46;107278;1258;62097;-36
2023/10/27 02:08:35;;;;;;;7.60;4.80;;;;;;;12.07;91.55;97608.23;107233;1257;60554;-36
2023/10/27 02:11:03;;;;;;;7.00;4.50;;;;;;;12.00;91.92;97604.92;107127;1257;72580;-37
2023/10/27 02:13:31;;;;;;;5.50;4.30;;;;;;;11.97;91.89;97609.86;107210;1257;66433;-36
2023/10/27 02:15:58;;;;;;;7.30;4.70;;;;;;;11.97;91.67;97614.13;107073;1257;71428;-36
2023/10/27 02:18:26;;;;;;;6.90;4.60;;;;;;;11.96;91.68;97611.50;107248;1258;60587;-36
2023/10/27 02:20:54;;;;;;;8.00;4.80;;;;;;;11.92;91.93;97615.20;107078;1257;60285;-36
2023/10/27 02:23:22;;;;;;;7.10;4.80;;;;;;;11.87;92.12;97619.19;107143;1257;73880;-36
2023/10/27 02:25:49;;;;;;;7.20;4.70;;;;;;;11.84;92.15;97624.02;107282;1256;66979;-37
2023/10/27 02:28:17;;;;;;;7.80;5.00;;;;;;;11.83;92.11;97621.31;107217;1257;72786;-36
2023/10/27 02:30:44;;;;;;;5.90;4.80;;;;;;;11.83;92.37;97625.36;107242;1257;60455;-37
2023/10/27 02:33:13;;;;;;;9.50;5.00;;;;;;;11.78;92.64;97624.80;107208;1256;60277;-37
2023/10/27 02:35:40;;;;;;;7.40;4.70;;;;;;;11.75;92.76;97621.65;107284;1256;73850;-36
2023/10/27 02:38:09;;;;;;;6.50;4.90;;;;;;;11.74;92.58;97618.23;107206;1256;67697;-36
2023/10/27 02:40:37;;;;;;;9.00;4.50;;;;;;;11.80;92.37;97625.17;107200;1257;72697;-36
2023/10/27 02:43:08;;;;;;;5.60;4.80;;;;;;;11.79;92.49;97621.14;107265;1257;60475;-36
2023/10/27 02:45:37;;;;;;;8.90;5.40;;;;;;;11.78;92.71;97619.98;107285;1257;60434;-36
2023/10/27 02:48:05;;;;;;;8.40;5.20;;;;;;;11.77;92.97;97619.98;107197;1257;73885;-36
2023/10/27 02:50:33;;;;;;;7.00;5.00;;;;;;;11.81;92.68;97618.93;107036;1257;67934;-37
2023/10/27 02:53:01;;;;;;;8.90;5.10;;;;;;;11.83;92.33;97619.29;107180;1257;71168;-36
2023/10/27 02:55:28;;;;;;;6.90;5.10;;;;;;;11.81;92.30;97620.41;107186;1257;60984;-36
2023/10/27 02:57:56;;;;;;;8.10;5.20;;;;;;;11.78;92.50;97624.86;107241;1257;60415;-37
2023/10/27 03:00:24;;;;;;;7.60;5.00;;;;;;;11.74;92.46;97621.83;107258;1257;73798;-37
2023/10/27 03:02:51;;;;;;;12.30;5.20;;;;;;;11.74;92.20;97621.59;107213;1257;67579;-36
2023/10/27 03:05:19;;;;;;;8.30;5.90;;;;;;;11.74;91.83;97623.06;107195;1256;73073;-36
2023/10/27 03:07:47;;;;;;;6.90;5.60;;;;;;;11.71;91.73;97626.34;107214;1261;60405;-37
2023/10/27 03:10:14;;;;;;;9.20;6.10;;;;;;;11.63;92.09;97627.68;107065;1257;60309;-35
2023/10/27 03:12:42;;;;;;;9.40;5.80;;;;;;;11.56;92.21;97626.92;107166;1257;73928;-36
2023/10/27 03:15:10;;;;;;;9.00;5.20;;;;;;;11.54;92.22;97628.80;107202;1261;67923;-36
2023/10/27 03:17:38;;;;;;;7.80;5.60;;;;;;;11.53;92.08;97630.45;107131;1259;71453;-37
2023/10/27 03:20:06;;;;;;;6.80;5.80;;;;;;;11.50;92.35;97628.86;107221;1257;61010;-36
2023/10/27 03:22:34;;;;;;;9.30;6.10;;;;;;;11.43;92.81;97632.89;107252;1257;60952;-37
2023/10/27 03:25:03;;;;;;;10.90;6.20;;;;;;;11.36;93.18;97636.40;107233;1257;72574;-36
2023/10/27 03:27:32;;;;;;;5.60;4.90;;;;;;;11.35;93.38;97632.08;107259;1257;67920;-36
2023/10/27 03:29:59;;;;;;;6.40;5.60;;;;;;;11.36;93.43;97625.24;107212;1257;72666;-36
2023/10/27 03:32:28;;;;;;;10.00;6.40;;;;;;;11.38;93.60;97620.63;107046;1257;59241;-36
2023/10/27 03:34:55;;;;;;;10.40;7.10;;;;;;;11.36;93.97;97623.06;107200;1257;60552;-36
2023/10/27 03:37:26;;;;;;;9.90;7.00;;;;;;;11.30;94.37;97615.77;107226;1257;72585;-36
2023/10/27 03:39:54;;;;;;;8.40;6.90;;;;;;;11.30;94.53;97615.54;107180;1257;66431;-36
2023/10/27 03:42:21;;;;;;;9.60;6.00;;;;;;;11.31;94.54;97613.67;107186;1262;72699;-37
2023/10/27 03:44:49;;;;;;;7.90;6.40;;;;;;;11.33;94.67;97613.26;107234;1260;59391;-36
2023/10/27 03:47:16;;;;;;;10.50;7.30;;;;;;;11.31;94.94;97612.27;107247;1257;60287;-36
2023/10/27 03:49:44;;;;;;;17.80;7.10;;;;;;;11.25;95.31;97609.40;107214;1257;72654;-36
2023/10/27 03:52:12;;;;;;;10.60;7.10;;;;;;;11.27;95.22;97611.86;107301;1258;67668;-36
2023/10/27 03:54:39;;;;;;;9.20;6.80;;;;;;;11.32;94.89;97607.77;107228;1257;72669;-36
2023/10/27 03:57:07;;;;;;;8.50;6.40;;;;;;;11.36;94.71;97610.36;107232;1259;60530;-36
2023/10/27 03:59:35;;;;;;;12.30;7.80;;;;;;;11.33;94.77;97615.41;107227;1257;60339;-36
2023/10/27 04:02:02;;;;;;;10.40;6.70;;;;;;;11.30;94.75;97609.73;107204;1257;73655;-36
2023/10/27 04:04:30;;;;;;;11.50;6.70;;;;;;;11.31;94.40;97609.48;107205;1257;66300;-36
2023/10/27 04:06:59;;;;;;;8.30;6.60;;;;;;;11.34;94.02;97608.98;107222;1256;72705;-36
2023/10/27 04:09:27;;;;;;;8.90;6.40;;;;;;;11.35;93.97;97607.65;107241;1256;60325;-36
2023/10/27 04:11:54;;;;;;;9.80;6.70;;;;;;;11.32;93.84;97602.96;107223;1257;60467;-36
2023/10/27 04:14:22;;;;;;;9.30;6.00;;;;;;;11.27;93.58;97606.28;107238;1257;73847;-36
2023/10/27 04:16:49;;;;;;;9.00;6.00;;;;;;;11.26;93.13;97605.98;107210;1256;66758;-36
2023/10/27 04:19:17;;;;;;;10.20;6.80;;;;;;;11.29;92.69;97612.30;107236;1262;71454;-36
2023/10/27 04:21:44;;;;;;;10.50;7.00;;;;;;;11.28;92.17;97608.73;107249;1260;60074;-37
2023/10/27 04:24:12;;;;;;;11.60;6.70;;;;;;;11.23;91.77;97613.84;107241;1257;59754;-36
2023/10/27 04:26:40;;;;;;;10.10;6.50;;;;;;;11.17;91.69;97616.70;107246;1257;73851;-36
2023/10/27 04:29:08;;;;;;;9.60;6.20;;;;;;;11.16;91.34;97620.20;107219;1256;67642;-36
2023/10/27 04:31:35;;;;;;;7.30;6.00;;;;;;;11.18;91.29;97616.79;107219;1257;70484;-36
2023/10/27 04:34:03;;;;;;;10.70;7.00;;;;;;;11.14;91.27;97611.46;107242;1260;60420;-37
2023/10/27 04:36:31;;;;;;;12.60;7.00;;;;;;;11.11;91.25;97608.80;107236;1257;60426;-36
2023/10/27 04:38:58;;;;;;;11.00;7.20;;;;;;;11.10;91.33;97608.80;107239;1257;74337;-36
2023/10/27 04:41:30;;;;;;;8.00;6.20;;;;;;;11.15;91.06;97603.10;107227;1256;66638;-36
2023/10/27 04:43:58;;;;;;;8.00;5.40;;;;;;;11.22;90.67;97601.68;107215;1260;72688;-36
2023/10/27 04:46:26;;;;;;;7.40;5.40;;;;;;;11.25;90.15;97603.81;107267;1257;59630;-36
2023/10/27 04:48:56;;;;;;;7.60;5.50;;;;;;;11.23;89.70;97608.73;107292;1257;60554;-36
2023/10/27 04:51:26;;;;;;;6.20;4.70;;;;;;;11.22;89.42;97611.23;107250;1257;73868;-36
2023/10/27 04:53:53;;;;;;;5.90;4.80;;;;;;;11.25;88.53;97614.59;107274;1257;66871;-35
2023/10/27 04:56:21;;;;;;;9.50;5.70;;;;;;;11.25;87.95;97620.87;107234;1260;72738;-36
2023/10/27 04:58:48;;;;;;;8.60;6.50;;;;;;;11.21;87.62;97625.73;107240;1257;59650;-37
2023/10/27 05:01:16;;;;;;;7.50;5.70;;;;;;;11.14;87.79;97633.40;107204;1263;60350;-36
2023/10/27 05:03:44;;;;;;;7.20;5.60;;;;;;;11.07;88.14;97626.27;107301;1261;73865;-36
2023/10/27 05:06:12;;;;;;;6.90;5.10;;;;;;;11.09;88.32;97618.50;107225;1257;67606;-36
2023/10/27 05:08:39;;;;;;;14.00;6.30;;;;;;;11.13;88.23;97617.52;107200;1260;72659;-36
2023/10/27 05:11:07;;;;;;;8.00;5.80;;;;;;;11.13;88.18;97619.61;107224;1257;60329;-36
2023/10/27 05:13:34;;;;;;;8.80;6.20;;;;;;;11.11;88.44;97616.23;107208;1258;60179;-36
2023/10/27 05:16:03;;;;;;;7.90;5.50;;;;;;;11.09;88.58;97619.88;107228;1257;73847;-36
2023/10/27 05:18:31;;;;;;;11.00;6.20;;;;;;;11.13;88.56;97623.65;107256;1256;66300;-36
2023/10/27 05:20:59;;;;;;;9.40;5.60;;;;;;;11.18;88.48;97625.30;107210;1257;71782;-36
2023/10/27 05:23:26;;;;;;;6.90;5.50;;;;;;;11.19;88.58;97625.60;107256;1261;60405;-36
2023/10/27 05:25:54;;;;;;;10.80;6.80;;;;;;;11.16;88.86;97633.38;107217;1257;60492;-36
2023/10/27 05:28:21;;;;;;;8.40;6.40;;;;;;;11.15;89.33;97635.40;107270;1256;73844;-36
2023/10/27 05:30:51;;;;;;;9.50;6.40;;;;;;;11.22;89.17;97639.58;107229;1256;67908;-36
2023/10/27 05:33:20;;;;;;;9.40;5.90;;;;;;;11.29;89.03;97643.77;107235;1258;72700;-36
2023/10/27 05:35:47;;;;;;;8.80;6.40;;;;;;;11.31;89.01;97641.89;107205;1260;60781;-37
2023/10/27 05:38:15;;;;;;;9.50;6.90;;;;;;;11.35;89.41;97637.65;107241;1256;60517;-36
2023/10/27 05:40:43;;;;;;;12.50;6.50;;;;;;;11.39;89.75;97639.94;107208;1257;73867;-37
2023/10/27 05:43:12;;;;;;;10.50;6.10;;;;;;;11.47;89.72;97647.04;107268;1262;67904;-37
2023/10/27 05:45:40;;;;;;;9.20;6.10;;;;;;;11.53;89.71;97647.42;107248;1257;72754;-38
2023/10/27 05:48:08;;;;;;;9.10;7.10;;;;;;;11.53;90.31;97641.61;107229;1256;60338;-37
2023/10/27 05:50:35;;;;;;;9.40;7.00;;;;;;;11.52;90.88;97639.29;107231;1257;60431;-37
2023/10/27 05:53:03;;;;;;;11.10;6.30;;;;;;;11.54;91.57;97642.46;107251;1257;73859;-37
2023/10/27 05:55:31;;;;;;;7.50;6.20;;;;;;;11.60;91.75;97639.28;107238;1258;67576;-37
2023/10/27 05:57:58;;;;;;;14.50;6.60;;;;;;;11.66;92.05;97631.92;107227;1257;72736;-37
2023/10/27 06:00:27;;;;;;;9.20;6.50;;;;;;;11.64;92.42;97632.33;107225;1261;60082;-37
2023/10/27 06:02:55;;;;;;;8.60;6.20;;;;;;;11.61;92.97;97642.67;107236;1257;60508;-38
2023/10/27 06:05:23;;;;;;;13.70;6.90;;;;;;;11.63;93.18;97648.08;107222;1257;73851;-37
2023/10/27 06:07:51;;;;;;;10.70;6.50;;;;;;;11.70;93.17;97654.51;107229;1257;67608;-38
2023/10/27 06:10:18;;;;;;;10.60;6.50;;;;;;;11.72;93.15;97660.85;107219;1260;72537;-37
2023/10/27 06:12:46;;;;;;;9.50;7.00;;;;;;;11.72;93.26;97659.14;107245;1257;60292;-37
2023/10/27 06:15:14;;;;;;;10.70;6.60;;;;;;;11.69;93.33;97654.59;107228;1257;59177;-38
2023/10/27 06:17:43;;;;;;;11.30;6.20;;;;;;;11.74;93.39;97659.43;107233;1256;73037;-37
2023/10/27 06:20:10;;;;;;;8.20;6.30;;;;;;;11.79;93.07;97661.48;107183;1257;67738;-37
2023/10/27 06:22:45;;;;;;;9.70;6.80;;;;;;;11.79;93.01;97658.23;107215;1258;72683;-36
2023/10/27 06:25:13;;;;;;;9.70;6.70;;;;;;;11.77;93.52;97653.51;107206;1259;60076;-36
2023/10/27 06:27:40;;;;;;;11.00;6.70;;;;;;;11.76;93.61;97659.43;107269;1257;60309;-37
2023/10/27 06:30:08;;;;;;;9.10;6.10;;;;;;;11.81;93.82;97664.79;107217;1257;73947;-36
2023/10/27 06:32:36;;;;;;;15.10;7.40;;;;;;;11.86;93.84;97671.23;107259;1256;67913;-36
2023/10/27 06:35:04;;;;;;;11.60;6.90;;;;;;;11.86;94.27;97672.11;107198;1262;73198;-36
2023/10/27 06:37:32;;;;;;;10.50;6.80;;;;;;;11.84;94.50;97668.95;107212;1260;61138;-37
2023/10/27 06:40:01;;;;;;;11.20;6.30;;;;;;;11.86;94.71;97668.77;107154;1261;60584;-36
2023/10/27 06:42:29;;;;;;;9.00;6.30;;;;;;;11.91;94.87;97671.25;107248;1257;73880;-37
2023/10/27 06:44:57;;;;;;;8.60;6.60;;;;;;;11.94;95.12;97673.67;107202;1257;66433;-36
2023/10/27 06:47:24;;;;;;;12.00;7.10;;;;;;;11.92;95.40;97673.94;107188;1260;72677;-36
2023/10/27 06:49:52;;;;;;;10.70;6.60;;;;;;;11.91;95.45;97675.84;107212;1257;60399;-36
2023/10/27 06:52:19;;;;;;;8.60;6.20;;;;;;;11.95;95.17;97673.75;107218;1258;60390;-36
2023/10/27 06:54:47;;;;;;;13.00;6.70;;;;;;;11.98;94.88;97675.80;107201;1262;73859;-36
2023/10/27 06:57:14;;;;;;;11.80;6.90;;;;;;;11.98;95.21;97678.20;107230;1257;65317;-36
2023/10/27 06:59:42;;;;;;;11.60;6.70;;;;;;;12.01;95.62;97680.80;107204;1263;72782;-36
2023/10/27 07:02:09;;;;;;;24.50;7.60;;;;;;;12.08;95.52;97678.21;107227;1263;60424;-36
2023/10/27 07:04:37;;;;;;;18.70;6.80;;;;;;;12.15;95.34;97678.13;107248;1263;60520;-36
2023/10/27 07:07:05;;;;;;;8.90;6.80;;;;;;;12.19;95.36;97672.02;107247;1257;72865;-36
2023/10/27 07:09:51;;;;;;;10.30;7.30;;;;;;;12.19;95.47;97674.88;107260;1263;67916;-36
2023/10/27 07:12:19;;;;;;;10.70;6.60;;;;;;;12.20;95.09;97676.42;107248;1256;72722;-36
2023/10/27 07:14:46;;;;;;;9.80;6.50;;;;;;;12.26;94.98;97677.58;107186;1258;61744;-36
2023/10/27 07:17:14;;;;;;;9.50;5.90;;;;;;;12.33;95.06;97683.77;107249;1263;60445;-37
2023/10/27 07:19:42;;;;;;;8.50;6.10;;;;;;;12.41;95.41;97685.28;107265;1257;73828;-36
2023/10/27 07:22:10;;;;;;;12.50;7.10;;;;;;;12.42;95.53;97678.02;107267;1257;67675;-36
2023/10/27 07:24:38;;;;;;;13.80;6.80;;;;;;;12.47;95.31;97680.75;107246;1260;72677;-37
2023/10/27 07:27:06;;;;;;;9.10;5.90;;;;;;;12.54;95.08;97683.04;107245;1258;61768;-36
2023/10/27 07:29:33;;;;;;;12.60;6.30;;;;;;;12.65;94.69;97687.61;107250;1257;60288;-36
2023/10/27 07:32:01;;;;;;;11.40;5.70;;;;;;;12.73;94.73;97692.14;107238;1259;74126;-36
2023/10/27 07:34:29;;;;;;;10.60;6.00;;;;;;;12.76;94.50;97692.86;107283;1256;66298;-36
2023/10/27 07:36:57;;;;;;;7.40;5.90;;;;;;;12.80;94.17;97698.31;107237;1258;72750;-36
2023/10/27 07:39:24;;;;;;;7.40;5.10;;;;;;;12.88;93.54;97700.73;107216;1263;61800;-36
2023/10/27 07:41:52;;;;;;;9.60;5.50;;;;;;;12.97;92.79;97702.61;107275;1257;60392;-36
2023/10/27 07:44:20;;;;;;;9.70;5.90;;;;;;;13.03;92.58;97700.17;107266;1263;73952;-36
2023/10/27 07:46:47;;;;;;;9.30;5.40;;;;;;;13.06;92.60;97705.09;107228;1262;67882;-36
2023/10/27 07:49:15;;;;;;;9.00;5.00;;;;;;;13.12;92.20;97700.80;107178;1258;72698;-36
2023/10/27 07:51:43;;;;;;;8.30;4.90;;;;;;;13.22;91.42;97697.98;107190;1257;61831;-37
2023/10/27 07:54:10;;;;;;;9.30;5.20;;;;;;;13.32;90.64;97690.42;107213;1261;60106;-36
2023/10/27 07:56:38;;;;;;;8.90;5.60;;;;;;;13.39;90.52;97682.27;107244;1261;72612;-35
2023/10/27 07:59:06;;;;;;;7.60;5.20;;;;;;;13.45;90.67;97685.81;107290;1261;68641;-35
2023/10/27 08:01:34;;;;;;;7.70;4.40;;;;;;;13.57;89.99;97693.04;107210;1262;71584;-36
2023/10/27 08:04:05;;;;;;;6.70;4.40;;;;;;;13.69;89.02;97698.95;107226;1262;61669;-37
2023/10/27 08:06:33;;;;;;;12.00;5.30;;;;;;;13.77;87.94;97701.75;107118;1257;60625;-37
2023/10/27 08:09:02;;;;;;;9.00;5.30;;;;;;;13.79;86.92;97707.54;107141;1256;73968;-36
2023/10/27 08:11:29;;;;;;;10.40;4.90;;;;;;;13.83;85.87;97706.52;107252;1257;68064;-37
2023/10/27 08:13:57;;;;;;;6.10;4.20;;;;;;;13.91;84.94;97708.84;107206;1261;70793;-37
2023/10/27 08:16:25;;;;;;;6.90;4.50;;;;;;;14.00;84.67;97707.95;107227;1262;60444;-37
2023/10/27 08:18:53;;;;;;;5.30;4.00;;;;;;;14.05;84.44;97714.63;107271;1261;60516;-37
2023/10/27 08:21:20;;;;;;;6.20;3.60;;;;;;;14.08;83.30;97715.95;107212;1257;74247;-37
2023/10/27 08:23:48;;;;;;;6.50;3.60;;;;;;;14.16;81.69;97719.91;107177;1263;67923;-37
2023/10/27 08:26:16;;;;;;;9.70;3.90;;;;;;;14.25;80.65;97725.00;107203;1257;72429;-37
2023/10/27 08:28:43;;;;;;;5.80;3.90;;;;;;;14.30;80.30;97726.99;107161;1262;61232;-37
2023/10/27 08:31:11;;;;;;;5.60;3.90;;;;;;;14.32;80.57;97730.06;107222;1256;60469;-36
2023/10/27 08:33:40;;;;;;;7.00;3.50;;;;;;;14.40;80.64;97731.48;107251;1258;72203;-37
2023/10/27 08:36:11;;;;;;;5.70;3.30;;;;;;;14.56;80.07;97730.11;107243;1257;66747;-37
2023/10/27 08:38:38;;;;;;;6.40;3.60;;;;;;;14.69;79.00;97732.29;107178;1263;71151;-36
2023/10/27 08:41:07;;;;;;;6.90;3.40;;;;;;;14.77;77.74;97738.63;107089;1262;60856;-36
2023/10/27 08:43:36;;;;;;;4.80;2.80;;;;;;;14.84;76.13;97745.11;106956;1264;60421;-35
2023/10/27 08:46:04;;;;;;;6.10;2.70;;;;;;;14.91;75.47;97748.20;107189;1257;72673;-36
2023/10/27 08:48:32;;;;;;;6.60;3.50;;;;;;;14.96;75.55;97748.25;107266;1257;66442;-36
2023/10/27 08:51:04;;;;;;;6.30;3.10;;;;;;;15.00;76.57;97745.88;107244;1257;70891;-36
2023/10/27 08:53:31;;;;;;;5.80;3.50;;;;;;;15.06;77.54;97745.95;107032;1259;60585;-36
2023/10/27 08:55:59;;;;;;;7.90;3.20;;;;;;;15.16;77.41;97748.73;107221;1258;60268;-36
2023/10/27 08:58:27;;;;;;;6.00;3.40;;;;;;;15.32;76.94;97751.86;107192;1257;71803;-36
2023/10/27 09:00:54;;;;;;;5.40;3.60;;;;;;;15.49;75.89;97748.54;107219;1257;67045;-36
2023/10/27 09:03:22;;;;;;;5.80;3.70;;;;;;;15.60;74.54;97743.80;107186;1258;73094;-36
2023/10/27 09:05:49;;;;;;;5.70;3.40;;;;;;;15.66;74.35;97747.22;107151;1258;60156;-36
2023/10/27 09:08:18;;;;;;;6.50;3.20;;;;;;;15.73;74.25;97749.38;107083;1258;60257;-36
2023/10/27 09:10:46;;;;;;;4.70;3.00;;;;;;;15.81;72.05;97741.98;107156;1257;73915;-36
2023/10/27 09:13:20;;;;;;;3.50;3.10;;;;;;;15.86;70.98;97748.48;107212;1260;65818;-36
2023/10/27 09:15:50;;;;;;;6.00;3.10;;;;;;;15.85;70.34;97746.30;107106;1260;72778;-36
2023/10/27 09:18:18;;;;;;;6.50;3.10;;;;;;;15.84;70.58;97744.31;107173;1263;59598;-36
2023/10/27 09:20:55;;;;;;;4.90;3.00;;;;;;;15.81;70.70;97747.66;107267;1258;60481;-36
2023/10/27 09:23:23;;;;;;;4.70;2.90;;;;;;;15.77;69.94;97740.14;107170;1262;73862;-36
2023/10/27 09:25:50;;;;;;;8.60;3.00;;;;;;;15.79;70.13;97729.92;107189;1257;67669;-36
2023/10/27 09:28:18;;;;;;;6.30;2.80;;;;;;;15.82;70.25;97733.61;107050;1257;72782;-36
2023/10/27 09:30:46;;;;;;;6.70;3.40;;;;;;;15.81;70.62;97731.67;107023;1263;60411;-36
2023/10/27 09:33:23;;;;;;;6.60;3.00;;;;;;;15.83;71.07;97731.63;107257;1258;60094;-36
2023/10/27 09:35:52;;;;;;;4.00;3.10;;;;;;;15.86;70.88;97734.89;107227;1260;72008;-36
2023/10/27 09:38:20;;;;;;;5.20;3.00;;;;;;;15.89;70.76;97731.59;107257;1257;66891;-36
2023/10/27 09:40:48;;;;;;;4.10;2.90;;;;;;;16.01;70.82;97725.16;109043;1258;71478;-37
2023/10/27 09:43:20;;;;;;;5.20;2.70;;;;;;;16.17;70.88;97724.63;107514;1257;60370;-38
2023/10/27 09:45:54;;;;;;;3.70;2.60;;;;;;;16.29;69.87;97722.95;107220;1260;60032;-37
2023/10/27 09:48:27;;;;;;;4.40;2.90;;;;;;;16.38;68.49;97718.84;107221;1257;72650;-37
2023/10/27 09:51:11;;;;;;;4.30;2.90;;;;;;;16.46;67.53;97710.04;107277;1257;66764;-37
2023/10/27 09:53:39;;;;;;;5.00;3.00;;;;;;;16.56;66.61;97705.05;107248;1261;72462;-37
2023/10/27 09:56:06;;;;;;;7.40;2.60;;;;;;;16.66;65.90;97705.61;107262;1261;60402;-37
2023/10/27 09:58:35;;;;;;;2.60;2.10;;;;;;;16.77;65.21;97704.79;107069;1257;176351;-37
2023/10/27 10:02:19;;;;;;;3.80;2.50;;;;;;;17.03;64.92;97700.75;104250;1290;600144;-36
2023/10/27 10:04:50;;;;;;;4.40;2.40;;;;;;;17.16;64.44;97703.81;106464;1267;59319;-37
2023/10/27 10:07:34;;;;;;;2.80;2.30;;;;;;;17.28;63.30;97699.48;106585;1266;59274;-37
2023/10/27 10:10:22;;;;;;;3.50;2.30;;;;;;;17.40;61.92;97696.88;106505;1267;71050;-37
2023/10/27 10:12:56;;;;;;;4.60;2.70;;;;;;;17.50;61.78;97691.22;106981;1260;66034;-37
2023/10/27 10:15:24;;;;;;;6.20;2.30;;;;;;;17.51;61.28;97688.74;106907;1257;168145;-37
2023/10/27 10:17:51;;;;;;;8.10;3.10;;;;;;;17.47;61.44;97692.64;107159;1257;59200;-37
2023/10/27 10:20:41;;;;;;;5.00;3.00;;;;;;;17.40;61.31;97685.45;107022;1258;59420;-36
2023/10/27 10:23:09;;;;;;;4.40;2.60;;;;;;;17.31;60.48;97685.84;107049;1257;71312;-36
2023/10/27 10:25:38;;;;;;;3.70;2.40;;;;;;;17.27;60.80;97685.81;107053;1257;66735;-37
2023/10/27 10:28:09;;;;;;;14.80;3.00;;;;;;;17.29;59.57;97688.04;107011;1261;70668;-37
2023/10/27 10:30:38;;;;;;;3.30;2.30;;;;;;;17.35;59.85;97684.53;107074;1257;60465;-37
2023/10/27 10:33:20;;;;;;;30.30;5.00;;;;;;;17.47;59.56;97675.80;107058;1257;60084;-37
2023/10/27 10:35:51;;;;;;;4.60;2.20;;;;;;;17.61;58.57;97671.09;107027;1257;73147;-37
2023/10/27 10:38:21;;;;;;;3.30;1.90;;;;;;;17.68;57.04;97666.84;107078;1257;67846;-37
2023/10/27 10:40:56;;;;;;;3.90;2.10;;;;;;;17.72;57.16;97668.95;107070;1259;72734;-37
2023/10/27 10:43:24;;;;;;;3.90;2.30;;;;;;;17.73;57.60;97665.00;107067;1259;59612;-37
2023/10/27 10:45:56;;;;;;;3.30;1.90;;;;;;;17.72;57.69;97667.48;107099;1258;60422;-36
2023/10/27 10:48:25;;;;;;;3.30;2.20;;;;;;;17.69;58.18;97664.23;108354;1257;72119;-38
2023/10/27 10:51:03;;;;;;;4.90;2.30;;;;;;;17.67;59.05;97659.05;107055;1257;66800;-37
2023/10/27 10:53:30;;;;;;;3.80;2.50;;;;;;;17.65;59.16;97654.60;107055;1258;72851;-37
2023/10/27 10:56:00;;;;;;;4.10;2.20;;;;;;;17.59;59.04;97655.59;107043;1259;60186;-37
2023/10/27 10:58:32;;;;;;;2.40;2.20;;;;;;;17.50;59.23;97659.44;107122;1257;60088;-37
2023/10/27 11:01:00;;;;;;;7.10;2.10;;;;;;;17.39;59.58;97663.59;107086;1257;71128;-37
2023/10/27 11:03:31;;;;;;;2.30;2.10;;;;;;;17.28;59.67;97662.26;107151;1258;68061;-37
2023/10/27 11:06:01;;;;;;;3.20;2.30;;;;;;;17.16;60.29;97661.48;107167;1262;72745;-37
2023/10/27 11:08:31;;;;;;;35.50;5.70;;;;;;;17.06;60.79;97657.85;107177;1257;60513;-37
2023/10/27 11:11:04;;;;;;;15.60;3.20;;;;;;;17.04;60.43;97655.74;107172;1257;59523;-37
2023/10/27 11:13:34;;;;;;;34.60;17.20;;;;;;;17.02;60.70;97648.54;107219;1257;72080;-37
2023/10/27 11:16:03;;;;;;;5.50;3.00;;;;;;;16.99;61.47;97647.15;107046;1257;66546;-37
2023/10/27 11:18:31;;;;;;;5.80;2.80;;;;;;;16.96;61.06;97647.15;107037;1262;73309;-37
2023/10/27 11:20:59;;;;;;;5.20;2.70;;;;;;;16.91;60.76;97644.43;107196;1257;59590;-37
2023/10/27 11:23:27;;;;;;;3.60;2.50;;;;;;;16.85;60.83;97648.61;107151;1258;60269;-36
2023/10/27 11:26:05;;;;;;;3.30;2.40;;;;;;;16.78;60.66;97642.98;107192;1257;73117;-37
2023/10/27 11:28:42;;;;;;;5.50;2.10;;;;;;;16.73;60.86;97642.23;107152;1257;66285;-37
2023/10/27 11:31:12;;;;;;;6.90;2.60;;;;;;;16.72;61.41;97637.11;107154;1257;71474;-37